Time;durP1;ratioP1;P1;durP2;ratioP2;P2;SDS_P1;SDS_P2;PMS_P1;PMS_P2;Temp;Humidity;BMP_temperature;BMP_pressure;BME280_temperature;BME280_humidity;BME280_pressure;Samples;Min_cycle;Max_cycle;Signal;HPM_P1;HPM_P2
2022/01/19 00:00:31;;;;;;;9.10;6.10;;;4.20;82.70;;;4.63;62.15;99144.63;5088031;28;20044;-39
2022/01/19 00:02:59;;;;;;;8.43;5.70;;;4.20;83.10;;;4.58;62.06;99143.22;5086561;28;20062;-39
2022/01/19 00:05:28;;;;;;;9.50;5.63;;;4.10;83.30;;;4.52;61.92;99136.50;5086692;28;20044;-39
2022/01/19 00:07:56;;;;;;;9.70;6.93;;;4.10;83.30;;;4.45;61.89;99129.88;5086372;28;20125;-39
2022/01/19 00:10:28;;;;;;;10.63;5.90;;;4.00;83.40;;;4.36;61.91;99120.66;5087156;28;20519;-39
2022/01/19 00:12:57;;;;;;;11.67;6.70;;;3.80;83.30;;;4.27;62.12;99113.31;5087299;28;20114;-39
2022/01/19 00:15:28;;;;;;;8.97;5.90;;;3.70;83.70;;;4.18;61.83;99101.47;5086666;28;20246;-39
2022/01/19 00:17:58;;;;;;;9.57;6.30;;;3.60;84.50;;;4.11;61.99;99097.47;5088288;28;20052;-39
2022/01/19 00:20:31;;;;;;;9.40;6.53;;;3.50;84.20;;;4.05;62.38;99095.16;5086114;28;20058;-39
2022/01/19 00:23:01;;;;;;;10.70;6.50;;;3.50;84.30;;;3.96;61.79;99106.25;5086901;28;20051;-39
2022/01/19 00:25:30;;;;;;;10.43;6.23;;;3.30;84.70;;;3.89;62.02;99105.72;5086318;28;20056;-39
2022/01/19 00:27:59;;;;;;;9.33;6.23;;;3.30;85.30;;;3.81;62.41;99103.50;5087016;28;20059;-39
2022/01/19 00:30:28;;;;;;;11.40;6.63;;;3.20;85.30;;;3.72;62.10;99099.59;5086199;28;20074;-38
2022/01/19 00:32:56;;;;;;;15.13;7.20;;;3.10;85.30;;;3.61;62.15;99099.31;5085616;28;20448;-39
2022/01/19 00:35:25;;;;;;;8.93;6.03;;;2.90;85.40;;;3.51;62.51;99114.75;5086134;28;20066;-39
2022/01/19 00:37:53;;;;;;;9.80;6.63;;;2.80;86.20;;;3.46;62.14;99122.00;5087231;28;20354;-39
2022/01/19 00:40:21;;;;;;;9.63;6.30;;;2.80;87.10;;;3.43;62.32;99126.59;5087509;28;20051;-39
2022/01/19 00:42:50;;;;;;;10.23;6.23;;;2.80;86.90;;;3.38;62.34;99121.56;5086292;28;20050;-39
2022/01/19 00:45:18;;;;;;;16.97;6.60;;;2.70;86.50;;;3.31;62.44;99121.03;5085483;28;20044;-39
2022/01/19 00:47:47;;;;;;;12.53;6.47;;;2.70;87.10;;;3.29;62.47;99120.25;5084783;28;20048;-38
2022/01/19 00:50:24;;;;;;;9.87;6.20;;;2.70;87.20;;;3.24;62.82;99116.16;5086349;28;20056;-39
2022/01/19 00:52:53;;;;;;;9.80;6.87;;;2.60;87.10;;;3.17;62.62;99110.38;5087317;28;20066;-39
2022/01/19 00:55:24;;;;;;;9.93;6.73;;;2.50;87.30;;;3.11;62.83;99113.31;5084698;28;20066;-39
2022/01/19 00:57:52;;;;;;;12.43;7.00;;;2.50;87.90;;;3.08;62.99;99108.19;5086967;28;20223;-38
2022/01/19 01:00:26;;;;;;;10.00;6.30;;;2.40;88.10;;;3.07;62.94;99106.50;5085858;28;20054;-39
2022/01/19 01:02:55;;;;;;;9.90;6.07;;;2.40;88.50;;;3.02;62.54;99106.72;5085238;28;20062;-39
2022/01/19 01:05:25;;;;;;;9.30;5.93;;;2.40;88.00;;;2.98;62.62;99113.06;5086389;28;20058;-39
2022/01/19 01:07:53;;;;;;;11.50;7.70;;;2.30;88.30;;;2.93;62.83;99101.97;5086764;28;20058;-39
2022/01/19 01:10:23;;;;;;;8.90;5.93;;;2.30;88.80;;;2.90;63.23;99113.47;5086482;28;20290;-39
2022/01/19 01:12:54;;;;;;;10.83;6.07;;;2.30;89.20;;;2.86;63.03;99111.91;5086388;28;20056;-39
2022/01/19 01:18:18;;;;;;;13.07;7.20;;;2.20;89.40;;;2.81;63.27;99098.16;5089604;28;20055;-39
2022/01/19 01:20:53;;;;;;;10.93;6.80;;;2.10;89.90;;;2.76;63.23;99094.91;5089924;28;20062;-38
2022/01/19 01:23:25;;;;;;;10.25;6.05;;;2.10;90.20;;;2.74;63.38;99087.09;5104773;28;20369;-39
2022/01/19 01:25:54;;;;;;;10.63;6.37;;;2.10;90.70;;;2.72;63.38;99081.06;5106560;28;20358;-38
2022/01/19 01:28:24;;;;;;;9.70;5.97;;;2.10;90.50;;;2.71;63.52;99060.09;5088831;28;20344;-39
2022/01/19 01:30:53;;;;;;;12.40;7.07;;;2.10;90.80;;;2.71;63.35;99054.81;5086995;28;20062;-39
2022/01/19 01:33:21;;;;;;;11.00;6.30;;;2.10;90.80;;;2.69;63.46;99051.44;5104682;28;20064;-38
2022/01/19 01:35:50;;;;;;;13.20;7.00;;;2.10;90.80;;;2.66;63.50;99051.59;5089664;28;20054;-39
2022/01/19 01:38:22;;;;;;;11.00;6.60;;;2.10;91.00;;;2.66;63.69;99065.59;5088692;28;20055;-38
2022/01/19 01:41:14;;;;;;;10.33;6.50;;;2.00;90.80;;;2.66;63.58;99075.25;5071658;28;20059;-39
2022/01/19 01:44:03;;;;;;;13.27;6.50;;;2.10;91.50;;;2.64;63.92;99079.75;5089152;28;20056;-39
2022/01/19 01:46:42;;;;;;;9.27;6.67;;;2.10;91.50;;;2.63;63.90;99089.41;5089766;28;20049;-39
2022/01/19 01:49:18;;;;;;;11.63;6.87;;;2.10;91.70;;;2.61;63.82;99080.72;5106199;28;20363;-39
2022/01/19 01:54:34;;;;;;;13.30;6.57;;;2.00;92.10;;;2.56;63.87;99056.47;5075088;28;20058;-39
2022/01/19 01:57:03;;;;;;;12.33;8.13;;;1.90;91.80;;;2.52;63.90;99047.88;5087593;28;20048;-39
2022/01/19 01:59:35;;;;;;;12.97;6.53;;;1.90;92.20;;;2.51;63.70;99056.66;5087503;28;20273;-38
2022/01/19 02:02:22;;;;;;;10.23;6.53;;;1.90;92.50;;;2.49;64.01;99050.66;5093419;28;20054;-39
2022/01/19 02:04:51;;;;;;;8.40;6.33;;;1.90;92.80;;;2.47;63.88;99038.50;5104820;28;20059;-39
2022/01/19 02:07:34;;;;;;;11.80;6.93;;;1.90;92.20;;;2.45;64.04;99040.38;5088566;28;20275;-39
2022/01/19 02:10:08;;;;;;;11.03;7.13;;;1.80;92.40;;;2.41;63.87;99031.78;5105238;28;20051;-39
2022/01/19 02:23:49;;;;;;;11.63;6.77;;;1.70;92.00;;;2.28;63.73;99007.88;5107150;28;20186;-38
2022/01/19 02:26:30;;;;;;;10.90;6.20;;;1.60;92.30;;;2.24;64.03;98998.44;5108284;28;20049;-39
2022/01/19 02:40:10;;;;;;;10.47;6.50;;;1.70;92.90;;;2.23;64.29;98977.47;5108624;28;20059;-39
2022/01/19 02:40:11;;;;;;;12.27;6.93;;;1.70;92.50;;;2.20;64.34;98965.38;5106787;28;20039;-39
2022/01/19 02:43:03;;;;;;;9.77;6.43;;;1.70;92.60;;;2.22;64.15;98949.53;5109438;28;20219;-39
2022/01/19 02:51:09;;;;;;;16.03;9.37;;;1.80;92.90;;;2.27;64.24;98929.09;5105606;28;20052;-38
2022/01/19 02:53:38;;;;;;;16.30;9.67;;;1.80;93.00;;;2.25;64.25;98928.31;5108634;28;20361;-39
2022/01/19 02:56:11;;;;;;;12.30;8.30;;;1.80;93.00;;;2.24;64.69;98922.22;5107380;28;20051;-38
2022/01/19 02:58:56;;;;;;;29.47;15.93;;;1.80;93.70;;;2.26;64.48;98920.38;5122787;27;20190;-39
2022/01/19 03:09:29;;;;;;;17.03;11.57;;;1.70;93.30;;;2.18;64.65;98912.03;5107599;28;20050;-39
2022/01/19 03:12:01;;;;;;;15.00;9.33;;;1.70;93.50;;;2.16;64.21;98909.47;5108526;28;20046;-39
2022/01/19 03:14:30;;;;;;;12.70;8.13;;;1.70;94.00;;;2.14;64.46;98900.81;5123591;27;20141;-39
2022/01/19 03:16:58;;;;;;;12.83;8.13;;;1.70;94.20;;;2.14;64.36;98894.72;5109035;28;20039;-39
2022/01/19 03:19:28;;;;;;;11.43;7.47;;;1.60;94.10;;;2.12;64.83;98884.28;5107063;28;20065;-39
2022/01/19 03:21:57;;;;;;;12.57;7.47;;;1.60;94.00;;;2.10;64.69;98880.91;5107711;28;20057;-39
2022/01/19 03:24:26;;;;;;;14.50;7.33;;;1.50;94.10;;;2.08;64.68;98890.63;5108394;28;20047;-39
2022/01/19 03:26:54;;;;;;;12.37;7.17;;;1.60;94.20;;;2.07;64.67;98881.03;5107885;27;20056;-39
2022/01/19 03:29:34;;;;;;;14.00;8.47;;;1.50;94.30;;;2.06;64.88;98878.50;5124318;27;20043;-39
2022/01/19 03:32:03;;;;;;;12.93;8.83;;;1.50;95.50;;;2.08;65.25;98874.88;5107702;28;20353;-39
2022/01/19 03:34:31;;;;;;;13.37;7.90;;;1.50;96.00;;;2.10;64.74;98872.16;5123560;27;20059;-39
2022/01/19 03:37:03;;;;;;;17.70;7.97;;;1.60;95.80;;;2.10;64.90;98869.53;5090186;28;20298;-39
2022/01/19 03:39:32;;;;;;;13.50;7.90;;;1.60;95.60;;;2.09;64.86;98863.41;5105271;28;20253;-39
2022/01/19 03:42:00;;;;;;;12.40;7.30;;;1.60;95.30;;;2.09;64.73;98863.41;5107480;28;20361;-39
2022/01/19 03:44:29;;;;;;;14.97;8.47;;;1.60;95.10;;;2.08;65.09;98860.91;5106738;28;20052;-39
2022/01/19 03:47:00;;;;;;;12.37;8.37;;;1.60;95.00;;;2.09;65.00;98857.31;5107420;28;20233;-39
2022/01/19 03:49:33;;;;;;;14.90;7.97;;;1.60;95.40;;;2.09;65.09;98858.16;5104861;28;20239;-39
2022/01/19 03:52:05;;;;;;;12.88;7.50;;;1.70;95.20;;;2.09;65.22;98846.81;5105692;28;20274;-39
2022/01/19 03:54:43;;;;;;;12.20;7.18;;;1.60;94.80;;;2.08;65.17;98848.59;5088648;28;20047;-39
2022/01/19 03:57:12;;;;;;;14.67;8.30;;;1.60;94.60;;;2.05;64.97;98848.75;5106525;28;20051;-39
2022/01/19 03:59:41;;;;;;;11.27;8.03;;;1.50;94.70;;;2.04;65.17;98852.31;5105970;28;20066;-39
2022/01/19 04:02:10;;;;;;;16.83;9.13;;;1.50;95.40;;;2.01;64.56;98836.69;5104348;28;20379;-39
2022/01/19 04:04:51;;;;;;;12.40;7.50;;;1.40;95.00;;;1.97;64.57;98838.63;5105532;28;20055;-39
2022/01/19 04:07:38;;;;;;;12.70;7.60;;;1.40;95.10;;;1.95;64.77;98835.22;5106949;28;20332;-39
2022/01/19 04:10:06;;;;;;;14.60;8.63;;;1.40;95.50;;;1.95;64.98;98835.22;5107123;28;20234;-39
2022/01/19 04:12:52;;;;;;;14.17;8.57;;;1.40;95.30;;;1.95;65.39;98829.13;5105815;28;20047;-39
2022/01/19 04:15:21;;;;;;;13.13;7.97;;;1.40;96.20;;;1.95;65.48;98823.88;5122785;27;20361;-39
2022/01/19 04:17:54;;;;;;;15.43;7.87;;;1.40;96.70;;;1.95;65.04;98818.63;5105904;28;20053;-39
2022/01/19 04:20:25;;;;;;;15.23;8.80;;;1.40;97.00;;;1.94;65.45;98815.16;5104123;28;20282;-39
2022/01/19 04:23:00;;;;;;;14.23;9.07;;;1.50;97.60;;;1.97;65.46;98817.63;5122977;27;20054;-39
2022/01/19 04:25:28;;;;;;;16.50;9.27;;;1.50;97.40;;;1.99;65.39;98814.91;5104917;28;20345;-39
2022/01/19 04:27:56;;;;;;;17.80;8.83;;;1.50;97.60;;;1.99;65.81;98814.91;5104825;28;20552;-39
2022/01/19 04:30:27;;;;;;;14.50;8.73;;;1.50;97.40;;;2.02;65.49;98811.31;5104466;28;20069;-39
2022/01/19 04:35:33;;;;;;;12.77;7.53;;;1.60;97.10;;;2.06;65.41;98795.28;5103938;28;20053;-39
2022/01/19 04:47:07;;;;;;;15.90;9.43;;;1.50;96.80;;;1.97;65.42;98774.75;5106204;28;20060;-39
2022/01/19 04:54:17;;;;;;;15.20;8.03;;;1.40;96.80;;;1.92;65.13;98768.88;5107022;28;20047;-39
2022/01/19 05:08:44;;;;;;;18.77;9.53;;;1.00;98.30;;;1.62;65.59;98766.91;5108637;28;20242;-39
2022/01/19 05:13:58;;;;;;;11.90;7.53;;;1.00;98.10;;;1.58;65.10;98758.31;5112613;27;20065;-39
2022/01/19 05:16:30;;;;;;;13.27;7.27;;;0.90;98.00;;;1.56;65.44;98743.59;5130193;27;20051;-39
2022/01/19 05:18:58;;;;;;;13.83;8.10;;;0.90;98.40;;;1.55;65.48;98742.75;5130744;27;20051;-39
2022/01/19 05:21:27;;;;;;;15.87;7.53;;;1.00;98.00;;;1.60;65.30;98736.41;5111537;27;20059;-39
2022/01/19 05:24:10;;;;;;;13.10;7.22;;;1.10;98.30;;;1.63;65.30;98728.38;5136566;27;20041;-39
2022/01/19 05:26:52;;;;;;;11.53;6.50;;;1.20;97.40;;;1.66;65.79;98729.06;5112775;27;20241;-39
2022/01/19 05:29:33;;;;;;;10.50;6.13;;;1.10;96.90;;;1.69;65.40;98734.16;5110824;27;20058;-40
2022/01/19 05:32:01;;;;;;;13.63;7.60;;;1.20;97.00;;;1.73;65.34;98733.06;5111886;27;20062;-40
2022/01/19 05:34:29;;;;;;;14.83;8.93;;;1.30;96.70;;;1.75;65.32;98730.38;5112883;27;20051;-40
2022/01/19 05:37:15;;;;;;;26.63;13.17;;;1.30;95.60;;;1.75;65.46;98725.13;5112347;27;20057;-40
2022/01/19 05:39:52;;;;;;;28.67;15.23;;;1.30;95.10;;;1.69;65.57;98715.78;5131125;27;20055;-39
2022/01/19 05:42:29;;;;;;;31.67;13.70;;;1.10;95.50;;;1.63;64.90;98712.63;5129378;27;20057;-39
2022/01/19 05:44:57;;;;;;;29.13;14.23;;;1.10;95.70;;;1.59;65.66;98714.56;5123367;27;20380;-40
2022/01/19 05:47:26;;;;;;;30.47;15.53;;;1.10;96.00;;;1.55;65.32;98723.50;5092050;28;20055;-39
2022/01/19 05:49:54;;;;;;;20.47;10.50;;;0.90;96.50;;;1.53;65.51;98715.75;5091235;28;20056;-39
2022/01/19 05:52:23;;;;;;;22.50;13.50;;;0.90;96.60;;;1.50;65.52;98715.03;5108046;28;20047;-39
2022/01/19 05:54:52;;;;;;;29.87;16.57;;;0.90;97.50;;;1.47;65.25;98716.03;5092991;28;20242;-39
2022/01/19 05:57:20;;;;;;;17.07;10.60;;;0.80;96.90;;;1.45;65.03;98720.50;5110165;28;20335;-39
2022/01/19 05:59:49;;;;;;;19.67;12.17;;;0.80;97.20;;;1.46;65.37;98716.13;5090115;28;20063;-39
2022/01/19 06:02:19;;;;;;;19.20;11.53;;;0.90;97.70;;;1.45;65.63;98725.75;5090355;28;20102;-39
2022/01/19 06:04:49;;;;;;;15.73;8.50;;;0.90;97.10;;;1.43;65.15;98717.09;5092813;28;20387;-39
2022/01/19 06:07:43;;;;;;;20.13;11.07;;;0.90;97.10;;;1.41;64.94;98723.38;5112637;28;20517;-39
2022/01/19 06:10:42;;;;;;;46.07;26.53;;;0.80;96.80;;;1.40;65.55;98713.78;5109379;28;20051;-40
2022/01/19 06:13:17;;;;;;;23.80;13.30;;;0.80;97.00;;;1.35;65.13;98709.63;5090984;28;20054;-39
2022/01/19 06:15:47;;;;;;;44.47;23.30;;;0.80;96.90;;;1.32;65.71;98708.97;5091198;28;20227;-39
2022/01/19 06:18:17;;;;;;;61.17;29.70;;;0.70;97.20;;;1.27;65.73;98710.94;5074737;28;20062;-39
2022/01/19 06:20:45;;;;;;;21.13;12.70;;;0.70;98.00;;;1.28;65.49;98703.00;5090407;28;20059;-39
2022/01/19 06:23:17;;;;;;;15.37;8.67;;;0.70;98.80;;;1.31;66.23;98709.88;5092705;28;20265;-39
2022/01/19 06:25:56;;;;;;;15.57;8.00;;;0.90;98.70;;;1.36;66.11;98713.97;5107754;28;20332;-38
2022/01/19 06:28:24;;;;;;;11.40;7.13;;;1.00;98.10;;;1.43;66.04;98713.66;5108034;28;20261;-39
2022/01/19 06:30:52;;;;;;;13.43;9.10;;;1.00;97.60;;;1.43;65.52;98721.53;5090322;28;20060;-38
2022/01/19 06:33:21;;;;;;;17.07;8.70;;;1.10;97.20;;;1.45;65.79;98712.63;5090556;28;20058;-38
2022/01/19 06:35:50;;;;;;;12.83;8.43;;;1.20;96.80;;;1.49;66.04;98719.44;5107440;28;20051;-37
2022/01/19 06:38:27;;;;;;;15.07;8.63;;;1.10;96.70;;;1.52;65.88;98719.28;5091223;28;20047;-38
2022/01/19 06:41:25;;;;;;;11.57;7.63;;;1.20;96.60;;;1.54;65.47;98712.16;5088343;28;20062;-37
2022/01/19 06:43:53;;;;;;;18.93;9.50;;;1.10;96.40;;;1.54;65.58;98701.66;5090030;28;20239;-38
2022/01/19 06:46:21;;;;;;;17.33;9.57;;;1.20;96.20;;;1.51;65.87;98703.59;5091111;28;20257;-38
2022/01/19 06:48:53;;;;;;;21.47;9.17;;;1.10;96.20;;;1.46;65.32;98692.50;5090248;28;20512;-38
2022/01/19 06:51:21;;;;;;;14.57;9.80;;;0.90;96.60;;;1.42;65.40;98686.56;5106002;28;20253;-38
2022/01/19 06:53:53;;;;;;;16.90;10.53;;;0.90;97.40;;;1.42;66.09;98683.94;5090564;28;20058;-37
2022/01/19 06:56:27;;;;;;;14.37;9.57;;;0.90;97.60;;;1.43;65.76;98684.78;5090041;28;20058;-38
2022/01/19 06:59:02;;;;;;;19.47;11.13;;;1.00;97.40;;;1.43;65.81;98690.88;5090199;28;20050;-38
2022/01/19 07:01:37;;;;;;;18.80;8.80;;;1.00;97.40;;;1.41;66.20;98686.63;5089967;28;20043;-38
2022/01/19 07:04:29;;;;;;;18.40;9.90;;;1.00;97.10;;;1.43;65.54;98690.03;5098096;28;20254;-39
2022/01/19 07:06:57;;;;;;;45.00;20.73;;;1.00;97.00;;;1.43;65.60;98688.25;5089609;28;20056;-38
2022/01/19 07:09:40;;;;;;;46.73;20.90;;;1.00;96.40;;;1.41;65.69;98684.84;5089774;28;20050;-39
2022/01/19 07:12:09;;;;;;;49.30;22.77;;;1.00;96.50;;;1.42;65.80;98683.09;5089503;28;20054;-39
2022/01/19 07:14:38;;;;;;;51.23;23.50;;;1.00;97.00;;;1.40;65.99;98680.53;5108194;28;20047;-39
2022/01/19 07:17:07;;;;;;;36.67;17.73;;;1.00;97.20;;;1.39;66.33;98684.09;5089401;28;20063;-39
2022/01/19 07:19:36;;;;;;;21.47;12.67;;;1.00;96.80;;;1.39;66.02;98678.84;5105503;28;20346;-38
2022/01/19 07:22:04;;;;;;;21.30;13.30;;;1.00;97.50;;;1.35;65.82;98672.88;5087162;28;20059;-38
2022/01/19 07:24:33;;;;;;;33.33;16.93;;;0.90;97.00;;;1.37;66.04;98668.41;5089533;28;20055;-39
2022/01/19 07:27:02;;;;;;;24.87;14.97;;;0.90;97.60;;;1.38;65.87;98662.25;5087842;28;20050;-39
2022/01/19 07:29:32;;;;;;;47.23;25.57;;;1.00;97.80;;;1.41;66.12;98658.59;5088879;28;20059;-39
2022/01/19 07:32:01;;;;;;;45.23;26.07;;;1.00;97.70;;;1.42;66.32;98660.31;5089202;28;20052;-39
2022/01/19 07:34:30;;;;;;;33.47;18.50;;;1.00;97.30;;;1.41;66.51;98663.84;5105189;28;20062;-39
2022/01/19 07:37:04;;;;;;;19.17;11.07;;;1.00;97.30;;;1.40;66.30;98656.06;5090383;28;20380;-39
2022/01/19 07:39:32;;;;;;;22.53;13.10;;;1.00;97.60;;;1.41;66.22;98661.22;5064652;28;20058;-39
2022/01/19 07:42:00;;;;;;;20.07;10.80;;;1.00;97.40;;;1.39;66.26;98655.22;5102868;27;20252;-39
2022/01/19 07:44:48;;;;;;;16.07;11.07;;;0.90;97.60;;;1.38;65.99;98657.00;5100338;28;20063;-39
2022/01/19 07:47:39;;;;;;;17.80;10.53;;;1.00;97.80;;;1.41;66.35;98647.28;5065402;28;20051;-38
2022/01/19 07:50:10;;;;;;;17.50;11.23;;;0.90;98.30;;;1.42;66.01;98647.19;5087497;28;20055;-39
2022/01/19 07:52:41;;;;;;;19.50;12.10;;;1.00;97.50;;;1.42;66.23;98641.13;5084694;28;20292;-39
2022/01/19 07:55:26;;;;;;;17.20;10.87;;;1.00;97.90;;;1.40;66.34;98653.44;5086161;28;20048;-39
2022/01/19 07:58:22;;;;;;;16.53;9.90;;;0.90;98.40;;;1.39;65.94;98644.72;5059777;28;20251;-39
2022/01/19 08:01:10;;;;;;;15.70;9.43;;;0.90;98.80;;;1.41;66.30;98637.63;5086862;28;20070;-39
2022/01/19 08:03:59;;;;;;;18.77;10.67;;;0.90;98.40;;;1.42;65.96;98641.94;5057410;28;20056;-39
2022/01/19 08:06:30;;;;;;;18.57;9.80;;;0.90;98.40;;;1.42;66.17;98641.94;5070049;28;20055;-39
2022/01/19 08:08:58;;;;;;;16.90;9.50;;;1.00;98.80;;;1.43;66.64;98642.78;5085266;28;20165;-39
2022/01/19 08:11:27;;;;;;;22.93;12.27;;;1.00;99.10;;;1.44;66.55;98642.72;5069123;28;20253;-39
2022/01/19 08:14:15;;;;;;;24.77;12.77;;;1.00;98.70;;;1.45;66.95;98649.66;5086879;28;20297;-39
2022/01/19 08:16:44;;;;;;;26.27;14.70;;;1.00;98.60;;;1.48;66.60;98652.13;5069514;28;20074;-39
2022/01/19 08:19:14;;;;;;;32.83;16.53;;;1.10;98.70;;;1.49;66.68;98653.84;5103013;28;20133;-39
2022/01/19 08:21:42;;;;;;;28.27;15.13;;;1.10;98.50;;;1.50;66.62;98652.06;5069368;28;20059;-39
2022/01/19 08:24:11;;;;;;;22.70;12.30;;;1.10;98.70;;;1.53;66.25;98647.50;5086390;28;20063;-39
2022/01/19 08:26:41;;;;;;;19.47;10.60;;;1.20;98.30;;;1.56;66.37;98646.47;5084962;28;20056;-39
2022/01/19 08:29:14;;;;;;;;;;;1.20;98.20;;;1.54;66.61;98643.94;5069066;28;20372;-39
2022/01/19 08:31:42;;;;;;;19.70;10.00;;;1.30;98.60;;;1.58;66.28;98647.25;5085871;28;19935;-39
2022/01/19 08:34:10;;;;;;;17.20;8.70;;;1.30;97.40;;;1.61;66.47;98639.22;5087318;28;20070;-39
2022/01/19 08:37:15;;;;;;;16.97;9.20;;;1.30;97.60;;;1.63;66.17;98653.09;5074320;28;20048;-39
2022/01/19 08:39:50;;;;;;;14.87;9.10;;;1.30;97.40;;;1.64;66.71;98652.16;5068734;28;20388;-39
2022/01/19 08:42:17;;;;;;;14.93;9.13;;;1.40;97.30;;;1.64;66.11;98660.03;5085104;28;20048;-39
2022/01/19 08:44:53;;;;;;;16.55;9.45;;;1.40;97.20;;;1.66;66.80;98654.72;5052014;28;20358;-39
2022/01/19 08:47:24;;;;;;;14.07;9.05;;;1.40;96.60;;;1.68;66.47;98655.47;5068344;28;20393;-38
2022/01/19 08:50:18;;;;;;;18.93;9.67;;;1.50;97.30;;;1.72;66.42;98654.38;5085493;28;20051;-39
2022/01/19 08:53:21;;;;;;;15.07;9.63;;;1.50;97.00;;;1.69;66.20;98654.56;5080588;28;20052;-39
2022/01/19 08:56:03;;;;;;;19.60;10.00;;;1.40;96.70;;;1.72;66.70;98642.09;5084113;28;20056;-39
2022/01/19 08:58:31;;;;;;;15.73;9.90;;;1.50;97.20;;;1.77;66.51;98644.50;5087181;28;20058;-39
2022/01/19 09:01:00;;;;;;;21.40;10.53;;;1.50;97.10;;;1.80;66.24;98649.56;5101993;28;20046;-39
2022/01/19 09:03:28;;;;;;;16.13;10.40;;;1.50;97.00;;;1.82;66.30;98654.75;5105945;28;20427;-39
2022/01/19 09:05:56;;;;;;;14.73;9.20;;;1.50;97.00;;;1.83;66.38;98654.66;5105614;28;20334;-39
2022/01/19 09:08:24;;;;;;;16.17;9.40;;;1.50;97.10;;;1.88;66.21;98659.66;5107883;28;20356;-39
2022/01/19 09:10:57;;;;;;;16.50;9.70;;;1.60;97.10;;;1.93;66.47;98657.66;5105298;28;20252;-39
2022/01/19 09:13:26;;;;;;;16.23;9.77;;;1.60;96.60;;;1.97;66.21;98651.31;5106136;28;20043;-39
2022/01/19 09:15:55;;;;;;;16.17;9.00;;;1.70;97.00;;;2.01;66.68;98649.38;5106073;28;20077;-39
2022/01/19 09:18:22;;;;;;;13.53;8.33;;;1.70;96.90;;;2.06;66.43;98656.06;5105527;28;20055;-39
2022/01/19 09:20:51;;;;;;;15.53;9.80;;;1.80;96.20;;;2.09;66.45;98655.88;5105909;28;20117;-39
2022/01/19 09:23:18;;;;;;;17.20;9.23;;;1.80;96.20;;;2.13;66.04;98646.94;5104727;28;20055;-39
2022/01/19 09:25:46;;;;;;;14.47;9.00;;;1.90;96.10;;;2.19;66.49;98658.88;5106500;28;20222;-39
2022/01/19 09:28:15;;;;;;;14.70;8.60;;;1.90;95.50;;;2.21;66.19;98658.78;5106766;28;20043;-39
2022/01/19 09:30:45;;;;;;;15.43;8.90;;;2.00;95.70;;;2.24;66.18;98654.22;5104714;28;20055;-39
2022/01/19 09:33:20;;;;;;;15.43;9.33;;;2.00;95.30;;;2.27;66.31;98651.41;5087105;28;20043;-39
2022/01/19 09:38:34;;;;;;;16.50;8.20;;;2.00;94.90;;;2.30;66.06;98638.09;5107138;28;20062;-39
2022/01/19 09:41:07;;;;;;;16.07;8.87;;;2.00;95.40;;;2.34;66.04;98634.34;5093498;28;20058;-39
2022/01/19 09:43:35;;;;;;;16.80;9.83;;;2.00;95.60;;;2.38;66.10;98631.56;5108666;28;20058;-39
2022/01/19 09:46:04;;;;;;;15.23;8.80;;;2.10;95.70;;;2.42;66.21;98625.22;5091166;28;20342;-39
2022/01/19 09:48:33;;;;;;;15.43;8.70;;;2.10;95.60;;;2.43;65.94;98625.13;5110376;28;20051;-39
2022/01/19 09:51:01;;;;;;;15.77;9.07;;;2.10;95.80;;;2.46;66.07;98624.97;5110662;28;20237;-39
2022/01/19 09:53:29;;;;;;;11.80;8.47;;;2.20;95.90;;;2.49;66.09;98618.69;5108867;28;20051;-39
2022/01/19 09:55:57;;;;;;;18.10;10.00;;;2.20;95.30;;;2.52;66.21;98626.38;5109580;28;20077;-39
2022/01/19 09:58:25;;;;;;;13.47;9.10;;;2.20;95.10;;;2.52;66.18;98610.59;5110619;28;20058;-39
2022/01/19 10:00:53;;;;;;;17.70;8.93;;;2.20;95.00;;;2.55;65.79;98610.44;5092320;28;20048;-39
2022/01/19 10:03:27;;;;;;;13.23;6.77;;;2.20;95.20;;;2.58;65.93;98602.41;5092438;28;20405;-39
2022/01/19 10:06:09;;;;;;;16.75;8.75;;;2.30;94.50;;;2.60;65.39;98605.78;5109587;28;20078;-39
2022/01/19 10:08:41;;;;;;;17.33;10.37;;;2.30;93.20;;;2.57;66.02;98603.31;5109112;28;20062;-39
2022/01/19 10:16:58;;;;;;;12.20;7.40;;;2.30;93.70;;;2.62;65.87;98598.66;5109114;28;20050;-39
2022/01/19 10:17:10;;;;;;;16.40;8.60;;;2.40;93.50;;;2.70;65.65;98571.91;5109977;28;20273;-39
2022/01/19 10:19:49;;;;;;;15.50;7.40;;;2.50;93.70;;;2.76;65.86;98561.88;5110061;28;20252;-39
2022/01/19 10:22:26;;;;;;;11.03;6.47;;;2.50;92.60;;;2.79;65.70;98560.84;5109970;28;20363;-39
2022/01/19 10:25:01;;;;;;;12.10;6.70;;;2.50;92.40;;;2.83;66.06;98553.63;5109145;28;20244;-39
2022/01/19 10:27:45;;;;;;;17.00;8.50;;;2.60;91.40;;;2.85;65.62;98554.38;5109625;28;20215;-39
2022/01/19 10:30:21;;;;;;;11.87;6.60;;;2.60;91.00;;;2.87;65.56;98555.13;5108122;28;20065;-39
2022/01/19 10:33:02;;;;;;;12.17;7.93;;;2.60;90.90;;;2.92;65.75;98556.56;5109366;28;20225;-39
2022/01/19 10:35:38;;;;;;;12.53;7.70;;;2.70;91.50;;;2.99;65.58;98550.94;5109474;28;20058;-39
2022/01/19 10:38:14;;;;;;;13.07;7.33;;;2.80;92.00;;;3.04;65.63;98543.59;5109658;28;20062;-39
2022/01/19 10:41:04;;;;;;;14.60;8.63;;;2.80;91.70;;;3.10;65.72;98552.00;5109551;28;20058;-40
2022/01/19 10:43:46;;;;;;;14.50;8.07;;;2.90;91.30;;;3.11;65.31;98540.50;5108942;28;20047;-39
2022/01/19 10:46:34;;;;;;;15.77;9.00;;;2.90;90.40;;;3.08;65.38;98535.47;5108679;28;20067;-39
2022/01/19 10:49:08;;;;;;;14.70;8.13;;;2.80;90.10;;;3.13;65.52;98537.81;5108636;28;20265;-39
2022/01/19 10:51:48;;;;;;;11.18;7.35;;;2.90;91.00;;;3.05;65.03;98534.78;5108032;28;20395;-39
2022/01/19 10:54:22;;;;;;;15.17;7.63;;;2.80;89.40;;;3.08;65.34;98539.84;5109027;28;20357;-39
2022/01/19 10:56:57;;;;;;;14.07;8.35;;;2.80;90.80;;;3.08;65.13;98532.81;5108588;28;20581;-39
2022/01/19 10:59:29;;;;;;;13.90;7.60;;;2.80;89.20;;;3.04;64.83;98527.81;5106329;28;20067;-39
2022/01/19 11:02:02;;;;;;;15.10;8.03;;;2.80;89.70;;;3.05;64.57;98527.75;5107447;28;20057;-39
2022/01/19 11:04:32;;;;;;;12.47;7.90;;;2.90;89.80;;;3.00;64.36;98531.59;5091089;28;20051;-40
2022/01/19 11:07:01;;;;;;;15.47;9.40;;;2.90;88.10;;;3.01;65.04;98533.28;5107992;28;20065;-39
2022/01/19 11:09:45;;;;;;;15.30;9.40;;;2.80;89.90;;;3.05;65.10;98534.78;5090652;28;20370;-40
2022/01/19 11:12:19;;;;;;;14.20;8.25;;;2.90;90.90;;;3.01;65.26;98538.56;5109523;28;20051;-39
2022/01/19 11:14:47;;;;;;;13.67;9.07;;;2.80;90.30;;;3.00;65.27;98537.69;5107390;28;20055;-39
2022/01/19 11:17:35;;;;;;;16.13;8.67;;;2.80;91.50;;;2.97;65.57;98524.72;5108549;28;20063;-39
2022/01/19 11:20:07;;;;;;;18.17;8.30;;;2.80;91.30;;;3.01;65.80;98523.59;5108659;28;20268;-38
2022/01/19 11:23:15;;;;;;;14.03;8.50;;;2.80;92.00;;;3.00;65.34;98523.69;5107893;28;20051;-40
2022/01/19 11:25:51;;;;;;;13.27;8.60;;;2.80;90.80;;;3.01;65.59;98517.50;5107826;28;20052;-38
2022/01/19 11:28:34;;;;;;;16.07;9.67;;;2.80;91.70;;;3.07;65.66;98517.13;5108409;28;20350;-39
2022/01/19 11:31:10;;;;;;;14.27;8.30;;;2.90;91.30;;;3.02;65.50;98512.13;5107921;28;20042;-38
2022/01/19 11:33:45;;;;;;;13.50;8.20;;;2.80;91.20;;;3.02;65.63;98509.50;5107016;28;20265;-38
2022/01/19 11:36:34;;;;;;;12.70;7.57;;;2.80;91.70;;;3.01;65.33;98502.56;5105805;28;20062;-38
2022/01/19 11:39:31;;;;;;;14.77;8.70;;;2.80;90.80;;;2.97;65.38;98498.41;5104566;28;20047;-38
2022/01/19 11:42:01;;;;;;;13.37;8.10;;;2.80;91.20;;;3.04;65.51;98496.25;5094055;28;20047;-38
2022/01/19 11:44:33;;;;;;;14.17;8.23;;;2.80;91.20;;;3.07;65.44;98496.09;5107830;28;20127;-38
2022/01/19 11:47:29;;;;;;;13.13;7.47;;;2.90;90.90;;;3.15;65.06;98492.03;5108410;28;20237;-38
2022/01/19 11:50:00;;;;;;;;;;;3.00;90.40;;;3.14;65.15;98490.34;5107945;28;20045;-39
2022/01/19 11:52:40;;;;;;;13.03;8.20;;;3.00;89.50;;;3.16;65.21;98485.00;5108380;28;19915;-39
2022/01/19 11:55:23;;;;;;;12.23;7.13;;;3.00;89.30;;;3.17;64.73;98480.56;5107805;28;20043;-39
2022/01/19 11:58:13;;;;;;;14.93;9.23;;;3.00;88.90;;;3.28;65.67;98473.72;5107665;28;20050;-39
2022/01/19 12:00:46;;;;;;;13.07;8.23;;;3.10;89.60;;;3.40;65.52;98474.72;5105804;28;20066;-38
2022/01/19 12:03:25;;;;;;;12.57;8.33;;;3.20;89.70;;;3.46;64.65;98461.19;5107581;28;20047;-38
2022/01/19 12:06:36;;;;;;;11.30;7.43;;;3.30;88.60;;;3.57;65.26;98454.38;5106702;28;20233;-38
2022/01/19 12:09:09;;;;;;;13.97;8.80;;;3.50;88.80;;;3.53;65.04;98448.50;5106801;28;20043;-38